sensor_id;sensor_type;location;lat;lon;timestamp;P1;durP1;ratioP1;P2;durP2;ratioP2
19623;SDS011;9959;49.798;9.928;2022-10-31T00:00:47;132.93;;;17.80;;
19623;SDS011;9959;49.798;9.928;2022-10-31T00:03:16;81.97;;;15.68;;
19623;SDS011;9959;49.798;9.928;2022-10-31T00:05:45;59.08;;;14.27;;
19623;SDS011;9959;49.798;9.928;2022-10-31T00:08:15;66.95;;;14.45;;
19623;SDS011;9959;49.798;9.928;2022-10-31T00:10:44;70.32;;;15.02;;
19623;SDS011;9959;49.798;9.928;2022-10-31T00:13:13;70.63;;;14.70;;
19623;SDS011;9959;49.798;9.928;2022-10-31T00:15:41;70.63;;;15.48;;
19623;SDS011;9959;49.798;9.928;2022-10-31T00:18:10;80.60;;;15.35;;
19623;SDS011;9959;49.798;9.928;2022-10-31T00:20:38;85.55;;;14.43;;
19623;SDS011;9959;49.798;9.928;2022-10-31T00:23:06;54.95;;;13.50;;
19623;SDS011;9959;49.798;9.928;2022-10-31T00:25:37;45.38;;;13.98;;
19623;SDS011;9959;49.798;9.928;2022-10-31T00:28:06;78.38;;;14.82;;
19623;SDS011;9959;49.798;9.928;2022-10-31T00:30:36;147.27;;;17.65;;
19623;SDS011;9959;49.798;9.928;2022-10-31T00:33:04;94.80;;;17.67;;
19623;SDS011;9959;49.798;9.928;2022-10-31T00:35:32;116.00;;;15.68;;
19623;SDS011;9959;49.798;9.928;2022-10-31T00:38:00;68.88;;;14.00;;
19623;SDS011;9959;49.798;9.928;2022-10-31T00:40:28;129.45;;;14.60;;
19623;SDS011;9959;49.798;9.928;2022-10-31T00:42:57;95.65;;;13.48;;
19623;SDS011;9959;49.798;9.928;2022-10-31T00:45:26;30.95;;;11.85;;
19623;SDS011;9959;49.798;9.928;2022-10-31T00:47:54;72.53;;;12.07;;
19623;SDS011;9959;49.798;9.928;2022-10-31T00:50:22;98.60;;;15.38;;
19623;SDS011;9959;49.798;9.928;2022-10-31T00:52:50;62.03;;;13.10;;
19623;SDS011;9959;49.798;9.928;2022-10-31T00:55:18;75.40;;;13.48;;
19623;SDS011;9959;49.798;9.928;2022-10-31T00:57:46;99.25;;;14.82;;
19623;SDS011;9959;49.798;9.928;2022-10-31T01:00:16;114.78;;;14.30;;
19623;SDS011;9959;49.798;9.928;2022-10-31T01:02:44;70.43;;;13.55;;
19623;SDS011;9959;49.798;9.928;2022-10-31T01:05:12;73.57;;;14.32;;
19623;SDS011;9959;49.798;9.928;2022-10-31T01:07:40;75.35;;;14.30;;
19623;SDS011;9959;49.798;9.928;2022-10-31T01:10:09;47.33;;;12.63;;
19623;SDS011;9959;49.798;9.928;2022-10-31T01:12:37;71.53;;;13.02;;
19623;SDS011;9959;49.798;9.928;2022-10-31T01:15:07;55.08;;;12.90;;
19623;SDS011;9959;49.798;9.928;2022-10-31T01:17:38;79.47;;;12.82;;
19623;SDS011;9959;49.798;9.928;2022-10-31T01:20:06;56.95;;;12.43;;
19623;SDS011;9959;49.798;9.928;2022-10-31T01:22:36;76.13;;;13.02;;
19623;SDS011;9959;49.798;9.928;2022-10-31T01:25:04;106.50;;;14.00;;
19623;SDS011;9959;49.798;9.928;2022-10-31T01:27:33;120.40;;;13.45;;
19623;SDS011;9959;49.798;9.928;2022-10-31T01:30:02;130.45;;;14.32;;
19623;SDS011;9959;49.798;9.928;2022-10-31T01:32:31;67.22;;;12.88;;
19623;SDS011;9959;49.798;9.928;2022-10-31T01:35:00;130.23;;;15.68;;
19623;SDS011;9959;49.798;9.928;2022-10-31T01:37:28;116.15;;;13.85;;
19623;SDS011;9959;49.798;9.928;2022-10-31T01:39:58;110.88;;;14.23;;
19623;SDS011;9959;49.798;9.928;2022-10-31T01:42:26;122.90;;;16.23;;
19623;SDS011;9959;49.798;9.928;2022-10-31T01:44:55;71.97;;;11.43;;
19623;SDS011;9959;49.798;9.928;2022-10-31T01:47:31;86.07;;;12.10;;
19623;SDS011;9959;49.798;9.928;2022-10-31T01:50:10;57.22;;;10.93;;
19623;SDS011;9959;49.798;9.928;2022-10-31T01:52:42;30.88;;;10.40;;
19623;SDS011;9959;49.798;9.928;2022-10-31T01:55:14;39.63;;;10.02;;
19623;SDS011;9959;49.798;9.928;2022-10-31T01:57:46;67.75;;;10.80;;
19623;SDS011;9959;49.798;9.928;2022-10-31T02:00:17;152.48;;;13.90;;
19623;SDS011;9959;49.798;9.928;2022-10-31T02:02:47;126.25;;;12.88;;
19623;SDS011;9959;49.798;9.928;2022-10-31T02:05:20;146.85;;;14.77;;
19623;SDS011;9959;49.798;9.928;2022-10-31T02:07:53;91.60;;;11.73;;
19623;SDS011;9959;49.798;9.928;2022-10-31T02:10:24;110.65;;;12.20;;
19623;SDS011;9959;49.798;9.928;2022-10-31T02:12:53;60.72;;;10.65;;
19623;SDS011;9959;49.798;9.928;2022-10-31T02:15:24;103.88;;;12.40;;
19623;SDS011;9959;49.798;9.928;2022-10-31T02:17:52;103.63;;;12.25;;
19623;SDS011;9959;49.798;9.928;2022-10-31T02:20:22;109.68;;;12.82;;
19623;SDS011;9959;49.798;9.928;2022-10-31T02:23:02;81.72;;;12.45;;
19623;SDS011;9959;49.798;9.928;2022-10-31T02:25:51;84.47;;;11.80;;
19623;SDS011;9959;49.798;9.928;2022-10-31T02:28:46;96.00;;;12.20;;
19623;SDS011;9959;49.798;9.928;2022-10-31T02:31:31;98.03;;;12.68;;
19623;SDS011;9959;49.798;9.928;2022-10-31T02:34:09;67.43;;;11.23;;
19623;SDS011;9959;49.798;9.928;2022-10-31T02:36:47;48.95;;;11.18;;
19623;SDS011;9959;49.798;9.928;2022-10-31T02:39:22;113.40;;;12.18;;
19623;SDS011;9959;49.798;9.928;2022-10-31T02:41:56;83.15;;;11.35;;
19623;SDS011;9959;49.798;9.928;2022-10-31T02:44:34;92.03;;;12.18;;
19623;SDS011;9959;49.798;9.928;2022-10-31T02:47:08;50.40;;;10.95;;
19623;SDS011;9959;49.798;9.928;2022-10-31T02:49:43;53.38;;;10.70;;
19623;SDS011;9959;49.798;9.928;2022-10-31T02:52:17;70.78;;;11.68;;
19623;SDS011;9959;49.798;9.928;2022-10-31T02:54:46;27.85;;;10.30;;
19623;SDS011;9959;49.798;9.928;2022-10-31T02:57:15;47.72;;;11.00;;
19623;SDS011;9959;49.798;9.928;2022-10-31T02:59:48;85.35;;;10.77;;
19623;SDS011;9959;49.798;9.928;2022-10-31T03:02:24;48.42;;;9.88;;
19623;SDS011;9959;49.798;9.928;2022-10-31T03:05:03;62.42;;;10.50;;
19623;SDS011;9959;49.798;9.928;2022-10-31T03:07:46;81.43;;;10.57;;
19623;SDS011;9959;49.798;9.928;2022-10-31T03:10:23;32.38;;;9.98;;
19623;SDS011;9959;49.798;9.928;2022-10-31T03:13:01;65.30;;;9.70;;
19623;SDS011;9959;49.798;9.928;2022-10-31T03:15:37;44.03;;;9.98;;
19623;SDS011;9959;49.798;9.928;2022-10-31T03:18:10;38.47;;;10.50;;
19623;SDS011;9959;49.798;9.928;2022-10-31T03:20:44;33.50;;;9.65;;
19623;SDS011;9959;49.798;9.928;2022-10-31T03:23:17;70.53;;;10.43;;
19623;SDS011;9959;49.798;9.928;2022-10-31T03:25:47;51.13;;;10.48;;
19623;SDS011;9959;49.798;9.928;2022-10-31T03:28:16;25.33;;;9.45;;
19623;SDS011;9959;49.798;9.928;2022-10-31T03:30:48;37.72;;;9.55;;
19623;SDS011;9959;49.798;9.928;2022-10-31T03:33:21;64.20;;;12.23;;
19623;SDS011;9959;49.798;9.928;2022-10-31T03:35:54;25.60;;;9.23;;
19623;SDS011;9959;49.798;9.928;2022-10-31T03:38:24;39.92;;;9.18;;
19623;SDS011;9959;49.798;9.928;2022-10-31T03:40:53;37.83;;;8.65;;
19623;SDS011;9959;49.798;9.928;2022-10-31T03:43:26;44.05;;;9.40;;
19623;SDS011;9959;49.798;9.928;2022-10-31T03:45:57;55.90;;;9.90;;
19623;SDS011;9959;49.798;9.928;2022-10-31T03:48:27;26.05;;;9.00;;
19623;SDS011;9959;49.798;9.928;2022-10-31T03:50:57;25.58;;;7.90;;
19623;SDS011;9959;49.798;9.928;2022-10-31T03:53:33;31.15;;;8.35;;
19623;SDS011;9959;49.798;9.928;2022-10-31T03:56:06;27.17;;;8.10;;
19623;SDS011;9959;49.798;9.928;2022-10-31T03:58:40;36.63;;;8.27;;
19623;SDS011;9959;49.798;9.928;2022-10-31T04:01:13;46.15;;;8.90;;
19623;SDS011;9959;49.798;9.928;2022-10-31T04:03:46;35.38;;;9.02;;
19623;SDS011;9959;49.798;9.928;2022-10-31T04:06:14;37.88;;;9.63;;
19623;SDS011;9959;49.798;9.928;2022-10-31T04:08:48;24.80;;;8.52;;
19623;SDS011;9959;49.798;9.928;2022-10-31T04:11:19;21.50;;;8.63;;
19623;SDS011;9959;49.798;9.928;2022-10-31T04:13:52;27.52;;;8.88;;
19623;SDS011;9959;49.798;9.928;2022-10-31T04:16:21;30.23;;;8.20;;
19623;SDS011;9959;49.798;9.928;2022-10-31T04:18:53;20.50;;;8.52;;
19623;SDS011;9959;49.798;9.928;2022-10-31T04:21:26;23.92;;;8.38;;
19623;SDS011;9959;49.798;9.928;2022-10-31T04:23:55;19.85;;;8.50;;
19623;SDS011;9959;49.798;9.928;2022-10-31T04:26:24;26.00;;;8.95;;
19623;SDS011;9959;49.798;9.928;2022-10-31T04:28:52;31.77;;;8.80;;
19623;SDS011;9959;49.798;9.928;2022-10-31T04:31:20;37.22;;;9.32;;
19623;SDS011;9959;49.798;9.928;2022-10-31T04:33:48;18.83;;;9.30;;
19623;SDS011;9959;49.798;9.928;2022-10-31T04:36:17;20.63;;;8.57;;
19623;SDS011;9959;49.798;9.928;2022-10-31T04:38:45;72.97;;;9.93;;
19623;SDS011;9959;49.798;9.928;2022-10-31T04:41:13;33.28;;;8.48;;
19623;SDS011;9959;49.798;9.928;2022-10-31T04:43:41;28.75;;;8.35;;
19623;SDS011;9959;49.798;9.928;2022-10-31T04:46:09;70.20;;;8.82;;
19623;SDS011;9959;49.798;9.928;2022-10-31T04:48:37;50.55;;;8.98;;
19623;SDS011;9959;49.798;9.928;2022-10-31T04:51:05;80.95;;;9.52;;
19623;SDS011;9959;49.798;9.928;2022-10-31T04:53:34;46.83;;;10.15;;
19623;SDS011;9959;49.798;9.928;2022-10-31T04:56:03;93.93;;;10.80;;
19623;SDS011;9959;49.798;9.928;2022-10-31T04:58:31;29.98;;;9.18;;
19623;SDS011;9959;49.798;9.928;2022-10-31T05:00:59;42.50;;;9.20;;
19623;SDS011;9959;49.798;9.928;2022-10-31T05:03:27;30.95;;;9.90;;
19623;SDS011;9959;49.798;9.928;2022-10-31T05:05:55;34.58;;;10.05;;
19623;SDS011;9959;49.798;9.928;2022-10-31T05:08:23;50.92;;;10.32;;
19623;SDS011;9959;49.798;9.928;2022-10-31T05:10:52;67.13;;;11.18;;
19623;SDS011;9959;49.798;9.928;2022-10-31T05:13:20;39.10;;;10.52;;
19623;SDS011;9959;49.798;9.928;2022-10-31T05:15:49;34.88;;;9.95;;
19623;SDS011;9959;49.798;9.928;2022-10-31T05:18:17;27.13;;;10.63;;
19623;SDS011;9959;49.798;9.928;2022-10-31T05:20:45;27.80;;;10.23;;
19623;SDS011;9959;49.798;9.928;2022-10-31T05:23:13;32.95;;;10.02;;
19623;SDS011;9959;49.798;9.928;2022-10-31T05:25:41;72.68;;;11.85;;
19623;SDS011;9959;49.798;9.928;2022-10-31T05:28:10;41.42;;;10.50;;
19623;SDS011;9959;49.798;9.928;2022-10-31T05:30:38;43.83;;;11.20;;
19623;SDS011;9959;49.798;9.928;2022-10-31T05:33:06;43.72;;;10.40;;
19623;SDS011;9959;49.798;9.928;2022-10-31T05:35:34;47.55;;;11.10;;
19623;SDS011;9959;49.798;9.928;2022-10-31T05:38:02;38.80;;;10.38;;
19623;SDS011;9959;49.798;9.928;2022-10-31T05:40:30;31.23;;;10.20;;
19623;SDS011;9959;49.798;9.928;2022-10-31T05:42:58;40.53;;;10.55;;
19623;SDS011;9959;49.798;9.928;2022-10-31T05:45:27;62.25;;;10.45;;
19623;SDS011;9959;49.798;9.928;2022-10-31T05:47:56;23.20;;;10.20;;
19623;SDS011;9959;49.798;9.928;2022-10-31T05:50:26;31.15;;;11.02;;
19623;SDS011;9959;49.798;9.928;2022-10-31T05:52:55;25.67;;;9.70;;
19623;SDS011;9959;49.798;9.928;2022-10-31T05:55:25;30.70;;;10.30;;
19623;SDS011;9959;49.798;9.928;2022-10-31T05:57:53;34.40;;;10.80;;
19623;SDS011;9959;49.798;9.928;2022-10-31T06:00:22;51.67;;;10.55;;
19623;SDS011;9959;49.798;9.928;2022-10-31T06:02:58;28.13;;;10.13;;
19623;SDS011;9959;49.798;9.928;2022-10-31T06:05:27;41.20;;;10.30;;
19623;SDS011;9959;49.798;9.928;2022-10-31T06:07:55;29.38;;;9.80;;
19623;SDS011;9959;49.798;9.928;2022-10-31T06:10:24;54.75;;;9.75;;
19623;SDS011;9959;49.798;9.928;2022-10-31T06:12:52;48.28;;;10.48;;
19623;SDS011;9959;49.798;9.928;2022-10-31T06:15:20;60.70;;;11.05;;
19623;SDS011;9959;49.798;9.928;2022-10-31T06:17:58;38.28;;;9.85;;
19623;SDS011;9959;49.798;9.928;2022-10-31T06:20:27;43.70;;;11.05;;
19623;SDS011;9959;49.798;9.928;2022-10-31T06:22:55;57.58;;;10.98;;
19623;SDS011;9959;49.798;9.928;2022-10-31T06:25:24;50.83;;;10.65;;
19623;SDS011;9959;49.798;9.928;2022-10-31T06:27:52;41.05;;;9.23;;
19623;SDS011;9959;49.798;9.928;2022-10-31T06:30:20;56.35;;;9.95;;
19623;SDS011;9959;49.798;9.928;2022-10-31T06:32:48;54.72;;;10.27;;
19623;SDS011;9959;49.798;9.928;2022-10-31T06:35:18;68.30;;;10.48;;
19623;SDS011;9959;49.798;9.928;2022-10-31T06:37:50;39.63;;;10.95;;
19623;SDS011;9959;49.798;9.928;2022-10-31T06:40:18;48.45;;;10.73;;
19623;SDS011;9959;49.798;9.928;2022-10-31T06:42:47;39.55;;;10.82;;
19623;SDS011;9959;49.798;9.928;2022-10-31T06:45:15;23.95;;;10.30;;
19623;SDS011;9959;49.798;9.928;2022-10-31T06:47:42;32.55;;;11.30;;
19623;SDS011;9959;49.798;9.928;2022-10-31T06:50:39;29.27;;;11.40;;
19623;SDS011;9959;49.798;9.928;2022-10-31T06:53:07;27.00;;;12.07;;
19623;SDS011;9959;49.798;9.928;2022-10-31T06:55:37;53.10;;;11.95;;
19623;SDS011;9959;49.798;9.928;2022-10-31T06:58:06;26.77;;;12.32;;
19623;SDS011;9959;49.798;9.928;2022-10-31T07:00:36;37.42;;;13.45;;
19623;SDS011;9959;49.798;9.928;2022-10-31T07:03:05;27.23;;;13.05;;
19623;SDS011;9959;49.798;9.928;2022-10-31T07:05:36;28.63;;;13.23;;
19623;SDS011;9959;49.798;9.928;2022-10-31T07:08:06;29.25;;;13.05;;
19623;SDS011;9959;49.798;9.928;2022-10-31T07:10:36;34.40;;;13.18;;
19623;SDS011;9959;49.798;9.928;2022-10-31T07:13:06;28.70;;;12.40;;
19623;SDS011;9959;49.798;9.928;2022-10-31T07:15:37;30.30;;;11.82;;
19623;SDS011;9959;49.798;9.928;2022-10-31T07:18:07;28.20;;;11.63;;
19623;SDS011;9959;49.798;9.928;2022-10-31T07:20:37;52.70;;;11.63;;
19623;SDS011;9959;49.798;9.928;2022-10-31T07:23:07;25.90;;;11.50;;
19623;SDS011;9959;49.798;9.928;2022-10-31T07:25:36;24.20;;;11.35;;
19623;SDS011;9959;49.798;9.928;2022-10-31T07:28:04;21.20;;;11.00;;
19623;SDS011;9959;49.798;9.928;2022-10-31T07:30:32;21.80;;;10.35;;
19623;SDS011;9959;49.798;9.928;2022-10-31T07:33:00;21.55;;;10.80;;
19623;SDS011;9959;49.798;9.928;2022-10-31T07:35:28;28.48;;;9.88;;
19623;SDS011;9959;49.798;9.928;2022-10-31T07:37:57;39.70;;;10.02;;
19623;SDS011;9959;49.798;9.928;2022-10-31T07:40:35;21.35;;;9.48;;
19623;SDS011;9959;49.798;9.928;2022-10-31T07:43:03;29.95;;;10.13;;
19623;SDS011;9959;49.798;9.928;2022-10-31T07:45:36;18.05;;;9.32;;
19623;SDS011;9959;49.798;9.928;2022-10-31T07:48:05;27.50;;;10.25;;
19623;SDS011;9959;49.798;9.928;2022-10-31T07:50:33;22.45;;;9.10;;
19623;SDS011;9959;49.798;9.928;2022-10-31T07:53:01;22.75;;;8.75;;
19623;SDS011;9959;49.798;9.928;2022-10-31T07:55:31;19.67;;;8.30;;
19623;SDS011;9959;49.798;9.928;2022-10-31T07:58:01;17.67;;;7.60;;
19623;SDS011;9959;49.798;9.928;2022-10-31T08:00:30;16.00;;;8.35;;
19623;SDS011;9959;49.798;9.928;2022-10-31T08:03:00;18.67;;;8.50;;
19623;SDS011;9959;49.798;9.928;2022-10-31T08:05:29;17.35;;;7.57;;
19623;SDS011;9959;49.798;9.928;2022-10-31T08:07:58;15.98;;;8.00;;
19623;SDS011;9959;49.798;9.928;2022-10-31T08:10:27;14.93;;;7.78;;
19623;SDS011;9959;49.798;9.928;2022-10-31T08:12:55;11.60;;;6.78;;
19623;SDS011;9959;49.798;9.928;2022-10-31T08:15:26;11.23;;;7.10;;
19623;SDS011;9959;49.798;9.928;2022-10-31T08:17:54;14.40;;;6.93;;
19623;SDS011;9959;49.798;9.928;2022-10-31T08:20:23;29.63;;;8.32;;
19623;SDS011;9959;49.798;9.928;2022-10-31T08:22:55;29.60;;;8.75;;
19623;SDS011;9959;49.798;9.928;2022-10-31T08:25:24;25.00;;;7.78;;
19623;SDS011;9959;49.798;9.928;2022-10-31T08:27:52;12.25;;;7.68;;
19623;SDS011;9959;49.798;9.928;2022-10-31T08:30:22;11.88;;;7.18;;
19623;SDS011;9959;49.798;9.928;2022-10-31T08:33:03;12.15;;;7.15;;
19623;SDS011;9959;49.798;9.928;2022-10-31T08:35:32;13.38;;;7.60;;
19623;SDS011;9959;49.798;9.928;2022-10-31T08:38:00;13.77;;;7.63;;
19623;SDS011;9959;49.798;9.928;2022-10-31T08:40:30;13.30;;;7.15;;
19623;SDS011;9959;49.798;9.928;2022-10-31T08:42:59;11.95;;;7.22;;
19623;SDS011;9959;49.798;9.928;2022-10-31T08:45:28;19.05;;;7.82;;
19623;SDS011;9959;49.798;9.928;2022-10-31T08:47:58;15.00;;;7.60;;
19623;SDS011;9959;49.798;9.928;2022-10-31T08:50:28;25.35;;;8.02;;
19623;SDS011;9959;49.798;9.928;2022-10-31T08:53:00;16.48;;;8.45;;
19623;SDS011;9959;49.798;9.928;2022-10-31T08:55:32;13.68;;;8.23;;
19623;SDS011;9959;49.798;9.928;2022-10-31T08:58:00;18.15;;;7.82;;
19623;SDS011;9959;49.798;9.928;2022-10-31T09:00:29;14.50;;;8.15;;
19623;SDS011;9959;49.798;9.928;2022-10-31T09:02:57;21.85;;;8.20;;
19623;SDS011;9959;49.798;9.928;2022-10-31T09:05:28;20.48;;;8.65;;
19623;SDS011;9959;49.798;9.928;2022-10-31T09:07:56;16.80;;;9.02;;
19623;SDS011;9959;49.798;9.928;2022-10-31T09:10:26;42.45;;;9.45;;
19623;SDS011;9959;49.798;9.928;2022-10-31T09:12:55;21.67;;;8.77;;
19623;SDS011;9959;49.798;9.928;2022-10-31T09:15:23;16.27;;;8.23;;
19623;SDS011;9959;49.798;9.928;2022-10-31T09:17:51;13.60;;;8.10;;
19623;SDS011;9959;49.798;9.928;2022-10-31T09:20:20;17.23;;;8.05;;
19623;SDS011;9959;49.798;9.928;2022-10-31T09:22:54;14.85;;;7.70;;
19623;SDS011;9959;49.798;9.928;2022-10-31T09:25:23;15.02;;;7.88;;
19623;SDS011;9959;49.798;9.928;2022-10-31T09:27:51;21.20;;;8.38;;
19623;SDS011;9959;49.798;9.928;2022-10-31T09:30:24;26.02;;;8.02;;
19623;SDS011;9959;49.798;9.928;2022-10-31T09:32:55;18.45;;;8.27;;
19623;SDS011;9959;49.798;9.928;2022-10-31T09:35:24;19.10;;;8.38;;
19623;SDS011;9959;49.798;9.928;2022-10-31T09:37:57;15.23;;;7.70;;
19623;SDS011;9959;49.798;9.928;2022-10-31T09:40:28;25.55;;;8.68;;
19623;SDS011;9959;49.798;9.928;2022-10-31T09:43:02;26.73;;;8.15;;
19623;SDS011;9959;49.798;9.928;2022-10-31T09:45:44;27.90;;;9.20;;
19623;SDS011;9959;49.798;9.928;2022-10-31T09:48:22;18.88;;;8.77;;
19623;SDS011;9959;49.798;9.928;2022-10-31T09:51:00;26.00;;;9.75;;
19623;SDS011;9959;49.798;9.928;2022-10-31T09:53:34;28.05;;;10.38;;
19623;SDS011;9959;49.798;9.928;2022-10-31T09:56:07;30.00;;;10.00;;
19623;SDS011;9959;49.798;9.928;2022-10-31T09:58:40;26.55;;;9.95;;
19623;SDS011;9959;49.798;9.928;2022-10-31T10:01:21;29.83;;;9.98;;
19623;SDS011;9959;49.798;9.928;2022-10-31T10:04:01;27.15;;;10.25;;
19623;SDS011;9959;49.798;9.928;2022-10-31T10:06:33;29.52;;;10.65;;
19623;SDS011;9959;49.798;9.928;2022-10-31T10:09:08;31.67;;;10.55;;
19623;SDS011;9959;49.798;9.928;2022-10-31T10:11:40;23.02;;;9.52;;
19623;SDS011;9959;49.798;9.928;2022-10-31T10:14:22;32.05;;;11.52;;
19623;SDS011;9959;49.798;9.928;2022-10-31T10:17:04;28.67;;;10.75;;
19623;SDS011;9959;49.798;9.928;2022-10-31T10:19:50;41.50;;;10.45;;
19623;SDS011;9959;49.798;9.928;2022-10-31T10:22:31;53.95;;;11.30;;
19623;SDS011;9959;49.798;9.928;2022-10-31T10:25:14;45.83;;;10.77;;
19623;SDS011;9959;49.798;9.928;2022-10-31T10:27:47;22.38;;;10.00;;
19623;SDS011;9959;49.798;9.928;2022-10-31T10:30:23;35.00;;;9.10;;
19623;SDS011;9959;49.798;9.928;2022-10-31T10:32:58;31.95;;;10.73;;
19623;SDS011;9959;49.798;9.928;2022-10-31T10:35:31;26.95;;;10.27;;
19623;SDS011;9959;49.798;9.928;2022-10-31T10:38:03;37.00;;;10.88;;
19623;SDS011;9959;49.798;9.928;2022-10-31T10:40:42;46.05;;;12.13;;
19623;SDS011;9959;49.798;9.928;2022-10-31T10:43:16;26.83;;;10.90;;
19623;SDS011;9959;49.798;9.928;2022-10-31T10:45:50;30.33;;;9.70;;
19623;SDS011;9959;49.798;9.928;2022-10-31T10:48:42;25.42;;;10.55;;
19623;SDS011;9959;49.798;9.928;2022-10-31T10:51:16;28.02;;;10.90;;
19623;SDS011;9959;49.798;9.928;2022-10-31T10:57:09;29.58;;;9.93;;
19623;SDS011;9959;49.798;9.928;2022-10-31T10:59:47;24.33;;;11.05;;
19623;SDS011;9959;49.798;9.928;2022-10-31T11:02:16;21.00;;;10.90;;
19623;SDS011;9959;49.798;9.928;2022-10-31T11:04:47;24.80;;;11.35;;
19623;SDS011;9959;49.798;9.928;2022-10-31T11:07:19;24.83;;;10.60;;
19623;SDS011;9959;49.798;9.928;2022-10-31T11:09:47;30.65;;;11.07;;
19623;SDS011;9959;49.798;9.928;2022-10-31T11:12:19;23.48;;;11.20;;
19623;SDS011;9959;49.798;9.928;2022-10-31T11:14:50;21.65;;;10.75;;
19623;SDS011;9959;49.798;9.928;2022-10-31T11:17:26;18.75;;;10.05;;
19623;SDS011;9959;49.798;9.928;2022-10-31T11:20:00;21.58;;;10.27;;
19623;SDS011;9959;49.798;9.928;2022-10-31T11:22:29;24.00;;;11.00;;
19623;SDS011;9959;49.798;9.928;2022-10-31T11:24:58;21.70;;;11.07;;
19623;SDS011;9959;49.798;9.928;2022-10-31T11:27:27;21.48;;;11.07;;
19623;SDS011;9959;49.798;9.928;2022-10-31T11:30:03;22.33;;;11.02;;
19623;SDS011;9959;49.798;9.928;2022-10-31T11:32:32;19.90;;;11.27;;
19623;SDS011;9959;49.798;9.928;2022-10-31T11:35:02;21.92;;;11.63;;
19623;SDS011;9959;49.798;9.928;2022-10-31T11:37:45;19.15;;;10.63;;
19623;SDS011;9959;49.798;9.928;2022-10-31T11:40:15;24.25;;;10.52;;
19623;SDS011;9959;49.798;9.928;2022-10-31T11:42:47;20.25;;;11.10;;
19623;SDS011;9959;49.798;9.928;2022-10-31T11:45:17;19.77;;;11.20;;
19623;SDS011;9959;49.798;9.928;2022-10-31T11:47:55;20.85;;;11.27;;
19623;SDS011;9959;49.798;9.928;2022-10-31T11:50:26;19.40;;;10.80;;
19623;SDS011;9959;49.798;9.928;2022-10-31T11:52:59;19.73;;;11.05;;
19623;SDS011;9959;49.798;9.928;2022-10-31T11:55:30;22.08;;;10.02;;
19623;SDS011;9959;49.798;9.928;2022-10-31T11:58:01;23.30;;;11.07;;
19623;SDS011;9959;49.798;9.928;2022-10-31T12:00:30;21.88;;;11.57;;
19623;SDS011;9959;49.798;9.928;2022-10-31T12:03:13;23.08;;;11.95;;
19623;SDS011;9959;49.798;9.928;2022-10-31T12:05:55;22.98;;;10.73;;
19623;SDS011;9959;49.798;9.928;2022-10-31T12:08:29;22.10;;;11.68;;
19623;SDS011;9959;49.798;9.928;2022-10-31T12:11:01;19.73;;;11.15;;
19623;SDS011;9959;49.798;9.928;2022-10-31T12:13:39;27.05;;;11.93;;
19623;SDS011;9959;49.798;9.928;2022-10-31T12:16:28;27.98;;;11.77;;
19623;SDS011;9959;49.798;9.928;2022-10-31T12:19:00;25.05;;;11.45;;
19623;SDS011;9959;49.798;9.928;2022-10-31T12:21:34;26.02;;;11.50;;
19623;SDS011;9959;49.798;9.928;2022-10-31T12:24:20;21.27;;;11.80;;
19623;SDS011;9959;49.798;9.928;2022-10-31T12:27:02;22.52;;;12.43;;
19623;SDS011;9959;49.798;9.928;2022-10-31T12:29:50;24.00;;;12.50;;
19623;SDS011;9959;49.798;9.928;2022-10-31T12:32:30;21.67;;;12.25;;
19623;SDS011;9959;49.798;9.928;2022-10-31T12:38:09;23.75;;;11.52;;
19623;SDS011;9959;49.798;9.928;2022-10-31T12:41:12;22.13;;;11.93;;
19623;SDS011;9959;49.798;9.928;2022-10-31T12:43:52;22.48;;;12.38;;
19623;SDS011;9959;49.798;9.928;2022-10-31T12:46:33;22.27;;;12.48;;
19623;SDS011;9959;49.798;9.928;2022-10-31T12:49:27;22.40;;;12.50;;
19623;SDS011;9959;49.798;9.928;2022-10-31T12:52:15;21.80;;;12.75;;
19623;SDS011;9959;49.798;9.928;2022-10-31T12:54:56;23.42;;;13.07;;
19623;SDS011;9959;49.798;9.928;2022-10-31T12:57:33;25.25;;;13.52;;
19623;SDS011;9959;49.798;9.928;2022-10-31T13:00:10;23.80;;;13.25;;
19623;SDS011;9959;49.798;9.928;2022-10-31T13:02:44;26.83;;;13.65;;
19623;SDS011;9959;49.798;9.928;2022-10-31T13:05:18;19.85;;;12.90;;
19623;SDS011;9959;49.798;9.928;2022-10-31T13:07:53;21.65;;;13.00;;
19623;SDS011;9959;49.798;9.928;2022-10-31T13:10:25;26.35;;;14.32;;
19623;SDS011;9959;49.798;9.928;2022-10-31T13:12:58;24.95;;;13.57;;
19623;SDS011;9959;49.798;9.928;2022-10-31T13:15:45;23.23;;;14.55;;
19623;SDS011;9959;49.798;9.928;2022-10-31T13:18:21;21.90;;;13.15;;
19623;SDS011;9959;49.798;9.928;2022-10-31T13:20:54;18.63;;;12.68;;
19623;SDS011;9959;49.798;9.928;2022-10-31T13:23:26;22.48;;;13.70;;
19623;SDS011;9959;49.798;9.928;2022-10-31T13:26:20;21.38;;;13.55;;
19623;SDS011;9959;49.798;9.928;2022-10-31T13:28:57;22.98;;;13.98;;
19623;SDS011;9959;49.798;9.928;2022-10-31T13:31:33;20.63;;;13.18;;
19623;SDS011;9959;49.798;9.928;2022-10-31T13:34:03;21.83;;;13.73;;
19623;SDS011;9959;49.798;9.928;2022-10-31T13:36:36;20.90;;;14.00;;
19623;SDS011;9959;49.798;9.928;2022-10-31T13:39:14;24.95;;;13.40;;
19623;SDS011;9959;49.798;9.928;2022-10-31T13:41:52;25.00;;;13.60;;
19623;SDS011;9959;49.798;9.928;2022-10-31T13:44:27;20.45;;;13.00;;
19623;SDS011;9959;49.798;9.928;2022-10-31T13:47:01;22.88;;;14.15;;
19623;SDS011;9959;49.798;9.928;2022-10-31T13:49:39;22.88;;;14.75;;
19623;SDS011;9959;49.798;9.928;2022-10-31T13:52:12;24.38;;;14.57;;
19623;SDS011;9959;49.798;9.928;2022-10-31T13:54:43;24.75;;;14.25;;
19623;SDS011;9959;49.798;9.928;2022-10-31T13:57:15;25.75;;;13.70;;
19623;SDS011;9959;49.798;9.928;2022-10-31T13:59:47;25.23;;;14.77;;
19623;SDS011;9959;49.798;9.928;2022-10-31T14:02:18;22.30;;;13.82;;
19623;SDS011;9959;49.798;9.928;2022-10-31T14:04:55;23.13;;;14.45;;
19623;SDS011;9959;49.798;9.928;2022-10-31T14:07:26;21.65;;;13.52;;
19623;SDS011;9959;49.798;9.928;2022-10-31T14:09:57;23.63;;;14.65;;
19623;SDS011;9959;49.798;9.928;2022-10-31T14:12:29;24.27;;;14.38;;
19623;SDS011;9959;49.798;9.928;2022-10-31T14:15:03;27.52;;;15.13;;
19623;SDS011;9959;49.798;9.928;2022-10-31T14:17:36;27.88;;;15.30;;
19623;SDS011;9959;49.798;9.928;2022-10-31T14:23:11;29.63;;;15.52;;
19623;SDS011;9959;49.798;9.928;2022-10-31T14:26:06;31.08;;;16.92;;
19623;SDS011;9959;49.798;9.928;2022-10-31T14:28:43;31.60;;;17.23;;
19623;SDS011;9959;49.798;9.928;2022-10-31T14:31:26;30.30;;;16.25;;
19623;SDS011;9959;49.798;9.928;2022-10-31T14:33:58;34.63;;;16.98;;
19623;SDS011;9959;49.798;9.928;2022-10-31T14:36:30;32.65;;;16.98;;
19623;SDS011;9959;49.798;9.928;2022-10-31T14:39:07;40.00;;;18.90;;
19623;SDS011;9959;49.798;9.928;2022-10-31T14:41:45;33.65;;;17.50;;
19623;SDS011;9959;49.798;9.928;2022-10-31T14:44:38;31.00;;;17.05;;
19623;SDS011;9959;49.798;9.928;2022-10-31T14:47:26;34.95;;;16.52;;
19623;SDS011;9959;49.798;9.928;2022-10-31T14:50:10;37.88;;;17.90;;
19623;SDS011;9959;49.798;9.928;2022-10-31T14:52:51;40.17;;;18.48;;
19623;SDS011;9959;49.798;9.928;2022-10-31T14:55:21;38.65;;;19.48;;
19623;SDS011;9959;49.798;9.928;2022-10-31T14:57:52;37.38;;;19.08;;
19623;SDS011;9959;49.798;9.928;2022-10-31T15:00:23;40.88;;;20.67;;
19623;SDS011;9959;49.798;9.928;2022-10-31T15:02:55;39.40;;;20.25;;
19623;SDS011;9959;49.798;9.928;2022-10-31T15:05:32;39.72;;;19.50;;
19623;SDS011;9959;49.798;9.928;2022-10-31T15:08:13;41.63;;;19.95;;
19623;SDS011;9959;49.798;9.928;2022-10-31T15:10:54;39.78;;;21.08;;
19623;SDS011;9959;49.798;9.928;2022-10-31T15:13:22;39.78;;;21.33;;
19623;SDS011;9959;49.798;9.928;2022-10-31T15:15:51;38.50;;;20.35;;
19623;SDS011;9959;49.798;9.928;2022-10-31T15:18:23;38.25;;;20.40;;